sensor_id;sensor_type;location;lat;lon;timestamp;temperature;humidity
44190;DHT22;29856;52.144;5.430;2022-12-18T00:01:03;0.30;99.90
44190;DHT22;29856;52.144;5.430;2022-12-18T00:03:28;0.30;99.90
44190;DHT22;29856;52.144;5.430;2022-12-18T00:05:54;0.30;99.90
44190;DHT22;29856;52.144;5.430;2022-12-18T00:08:19;0.30;99.90
44190;DHT22;29856;52.144;5.430;2022-12-18T00:10:45;0.30;99.90
44190;DHT22;29856;52.144;5.430;2022-12-18T00:13:13;0.30;99.90
44190;DHT22;29856;52.144;5.430;2022-12-18T00:15:39;0.30;99.90
44190;DHT22;29856;52.144;5.430;2022-12-18T00:18:05;0.10;99.90
44190;DHT22;29856;52.144;5.430;2022-12-18T00:20:35;0.00;99.90
44190;DHT22;29856;52.144;5.430;2022-12-18T00:23:01;-0.10;99.90
44190;DHT22;29856;52.144;5.430;2022-12-18T00:25:26;0.00;99.90
44190;DHT22;29856;52.144;5.430;2022-12-18T00:27:54;0.40;99.90
44190;DHT22;29856;52.144;5.430;2022-12-18T00:30:19;0.50;99.90
44190;DHT22;29856;52.144;5.430;2022-12-18T00:32:45;0.60;99.90
44190;DHT22;29856;52.144;5.430;2022-12-18T00:35:10;0.50;99.90
44190;DHT22;29856;52.144;5.430;2022-12-18T00:37:36;0.40;99.90
44190;DHT22;29856;52.144;5.430;2022-12-18T00:40:02;0.70;99.90
44190;DHT22;29856;52.144;5.430;2022-12-18T00:42:28;0.40;99.90
44190;DHT22;29856;52.144;5.430;2022-12-18T00:44:53;0.20;99.90
44190;DHT22;29856;52.144;5.430;2022-12-18T00:47:19;0.20;99.90
44190;DHT22;29856;52.144;5.430;2022-12-18T00:49:44;0.00;99.90
44190;DHT22;29856;52.144;5.430;2022-12-18T00:52:10;-0.20;99.90
44190;DHT22;29856;52.144;5.430;2022-12-18T00:54:35;-0.10;99.90
44190;DHT22;29856;52.144;5.430;2022-12-18T00:57:00;-0.10;99.90
44190;DHT22;29856;52.144;5.430;2022-12-18T00:59:26;0.20;99.90
44190;DHT22;29856;52.144;5.430;2022-12-18T01:01:51;0.10;99.90
44190;DHT22;29856;52.144;5.430;2022-12-18T01:04:17;0.30;99.90
44190;DHT22;29856;52.144;5.430;2022-12-18T01:06:42;0.20;99.90
44190;DHT22;29856;52.144;5.430;2022-12-18T01:09:08;0.10;99.90
44190;DHT22;29856;52.144;5.430;2022-12-18T01:11:33;0.00;99.90
44190;DHT22;29856;52.144;5.430;2022-12-18T01:13:59;0.00;99.90
44190;DHT22;29856;52.144;5.430;2022-12-18T01:16:24;0.10;99.90
44190;DHT22;29856;52.144;5.430;2022-12-18T01:18:53;0.10;99.90
44190;DHT22;29856;52.144;5.430;2022-12-18T01:21:19;0.20;99.90
44190;DHT22;29856;52.144;5.430;2022-12-18T01:23:46;0.10;99.90
44190;DHT22;29856;52.144;5.430;2022-12-18T01:26:14;0.10;99.90
44190;DHT22;29856;52.144;5.430;2022-12-18T01:28:40;0.10;99.90
44190;DHT22;29856;52.144;5.430;2022-12-18T01:31:26;0.00;99.90
44190;DHT22;29856;52.144;5.430;2022-12-18T01:33:53;-0.20;99.90
44190;DHT22;29856;52.144;5.430;2022-12-18T01:36:21;0.10;99.90
44190;DHT22;29856;52.144;5.430;2022-12-18T01:38:48;0.20;99.90
44190;DHT22;29856;52.144;5.430;2022-12-18T01:41:28;0.10;99.90
44190;DHT22;29856;52.144;5.430;2022-12-18T01:43:55;0.20;99.90
44190;DHT22;29856;52.144;5.430;2022-12-18T01:46:24;0.30;99.90
44190;DHT22;29856;52.144;5.430;2022-12-18T01:48:54;0.40;99.90
44190;DHT22;29856;52.144;5.430;2022-12-18T01:51:22;0.40;99.90
44190;DHT22;29856;52.144;5.430;2022-12-18T01:53:48;0.40;99.90
44190;DHT22;29856;52.144;5.430;2022-12-18T01:56:17;0.30;99.90
44190;DHT22;29856;52.144;5.430;2022-12-18T02:01:23;0.70;99.90
44190;DHT22;29856;52.144;5.430;2022-12-18T02:03:48;0.40;99.90
44190;DHT22;29856;52.144;5.430;2022-12-18T02:11:53;0.50;99.90
44190;DHT22;29856;52.144;5.430;2022-12-18T02:14:49;0.70;99.90
44190;DHT22;29856;52.144;5.430;2022-12-18T02:17:22;0.70;99.90
44190;DHT22;29856;52.144;5.430;2022-12-18T02:20:16;0.60;99.90
44190;DHT22;29856;52.144;5.430;2022-12-18T02:23:04;0.80;99.90
44190;DHT22;29856;52.144;5.430;2022-12-18T02:26:02;0.80;99.90
44190;DHT22;29856;52.144;5.430;2022-12-18T02:28:34;1.20;99.90
44190;DHT22;29856;52.144;5.430;2022-12-18T02:31:02;1.40;99.90
44190;DHT22;29856;52.144;5.430;2022-12-18T02:33:30;1.40;99.90
44190;DHT22;29856;52.144;5.430;2022-12-18T02:35:57;1.10;99.90
44190;DHT22;29856;52.144;5.430;2022-12-18T02:38:24;1.10;99.90
44190;DHT22;29856;52.144;5.430;2022-12-18T02:40:51;1.20;99.90
44190;DHT22;29856;52.144;5.430;2022-12-18T02:43:18;1.20;99.90
44190;DHT22;29856;52.144;5.430;2022-12-18T02:45:48;1.10;99.90
44190;DHT22;29856;52.144;5.430;2022-12-18T02:48:16;1.00;99.90
44190;DHT22;29856;52.144;5.430;2022-12-18T02:50:48;0.80;99.90
44190;DHT22;29856;52.144;5.430;2022-12-18T02:53:27;0.50;99.90
44190;DHT22;29856;52.144;5.430;2022-12-18T03:01:39;0.90;99.90
44190;DHT22;29856;52.144;5.430;2022-12-18T03:04:20;1.10;99.90
44190;DHT22;29856;52.144;5.430;2022-12-18T03:06:54;1.10;99.90
44190;DHT22;29856;52.144;5.430;2022-12-18T03:09:25;1.10;99.90
44190;DHT22;29856;52.144;5.430;2022-12-18T03:11:58;1.20;99.90
44190;DHT22;29856;52.144;5.430;2022-12-18T03:14:27;1.40;99.90
44190;DHT22;29856;52.144;5.430;2022-12-18T03:17:00;1.40;99.90
44190;DHT22;29856;52.144;5.430;2022-12-18T03:19:28;1.50;99.90
44190;DHT22;29856;52.144;5.430;2022-12-18T03:21:56;1.60;99.90
44190;DHT22;29856;52.144;5.430;2022-12-18T03:24:24;1.50;99.90
44190;DHT22;29856;52.144;5.430;2022-12-18T03:26:54;1.50;99.90
44190;DHT22;29856;52.144;5.430;2022-12-18T03:29:38;1.40;99.90
44190;DHT22;29856;52.144;5.430;2022-12-18T03:32:12;1.40;99.90
44190;DHT22;29856;52.144;5.430;2022-12-18T03:34:40;1.40;99.90
44190;DHT22;29856;52.144;5.430;2022-12-18T03:37:07;1.00;99.90
44190;DHT22;29856;52.144;5.430;2022-12-18T03:39:33;0.80;99.90
44190;DHT22;29856;52.144;5.430;2022-12-18T03:47:44;1.30;99.90
44190;DHT22;29856;52.144;5.430;2022-12-18T03:50:22;1.40;99.90
44190;DHT22;29856;52.144;5.430;2022-12-18T03:52:57;1.20;99.90
44190;DHT22;29856;52.144;5.430;2022-12-18T03:55:27;1.00;99.90
44190;DHT22;29856;52.144;5.430;2022-12-18T03:57:54;1.20;99.90
44190;DHT22;29856;52.144;5.430;2022-12-18T04:00:20;0.90;99.90
44190;DHT22;29856;52.144;5.430;2022-12-18T04:02:50;0.80;99.90
44190;DHT22;29856;52.144;5.430;2022-12-18T04:05:17;0.80;99.90
44190;DHT22;29856;52.144;5.430;2022-12-18T04:07:43;0.70;99.90
44190;DHT22;29856;52.144;5.430;2022-12-18T04:10:12;0.80;99.90
44190;DHT22;29856;52.144;5.430;2022-12-18T04:12:38;0.60;99.90
44190;DHT22;29856;52.144;5.430;2022-12-18T04:15:05;0.60;99.90
44190;DHT22;29856;52.144;5.430;2022-12-18T04:17:30;0.60;99.90
44190;DHT22;29856;52.144;5.430;2022-12-18T04:19:56;0.60;99.90
44190;DHT22;29856;52.144;5.430;2022-12-18T04:22:21;0.30;99.90
44190;DHT22;29856;52.144;5.430;2022-12-18T04:24:47;0.10;99.90
44190;DHT22;29856;52.144;5.430;2022-12-18T04:27:12;0.10;99.90
44190;DHT22;29856;52.144;5.430;2022-12-18T04:29:38;0.00;99.90
44190;DHT22;29856;52.144;5.430;2022-12-18T04:32:03;0.00;99.90
44190;DHT22;29856;52.144;5.430;2022-12-18T04:34:29;0.00;99.90
44190;DHT22;29856;52.144;5.430;2022-12-18T04:36:54;-0.10;99.90
44190;DHT22;29856;52.144;5.430;2022-12-18T04:39:20;-0.20;99.90
44190;DHT22;29856;52.144;5.430;2022-12-18T04:41:45;-0.10;99.90
44190;DHT22;29856;52.144;5.430;2022-12-18T04:44:11;0.00;99.90
44190;DHT22;29856;52.144;5.430;2022-12-18T04:46:36;-0.10;99.90
44190;DHT22;29856;52.144;5.430;2022-12-18T04:49:02;-0.10;99.90
44190;DHT22;29856;52.144;5.430;2022-12-18T04:51:27;0.00;99.90
44190;DHT22;29856;52.144;5.430;2022-12-18T04:53:53;0.00;99.90
44190;DHT22;29856;52.144;5.430;2022-12-18T04:56:19;-0.10;99.90
44190;DHT22;29856;52.144;5.430;2022-12-18T04:58:44;-0.20;99.90
44190;DHT22;29856;52.144;5.430;2022-12-18T05:01:12;-0.10;99.90
44190;DHT22;29856;52.144;5.430;2022-12-18T05:03:38;-0.10;99.90
44190;DHT22;29856;52.144;5.430;2022-12-18T05:06:04;-0.10;99.90
44190;DHT22;29856;52.144;5.430;2022-12-18T05:08:30;0.00;99.90
44190;DHT22;29856;52.144;5.430;2022-12-18T05:11:04;-0.10;99.90
44190;DHT22;29856;52.144;5.430;2022-12-18T05:13:30;-0.30;99.90
44190;DHT22;29856;52.144;5.430;2022-12-18T05:15:56;-0.20;99.90
44190;DHT22;29856;52.144;5.430;2022-12-18T05:18:22;0.10;99.90
44190;DHT22;29856;52.144;5.430;2022-12-18T05:20:49;0.30;99.90
44190;DHT22;29856;52.144;5.430;2022-12-18T05:23:15;0.30;99.90
44190;DHT22;29856;52.144;5.430;2022-12-18T05:25:40;0.50;99.90
44190;DHT22;29856;52.144;5.430;2022-12-18T05:28:06;0.60;99.90
44190;DHT22;29856;52.144;5.430;2022-12-18T05:30:31;0.60;99.90
44190;DHT22;29856;52.144;5.430;2022-12-18T05:32:56;0.50;99.90
44190;DHT22;29856;52.144;5.430;2022-12-18T05:35:22;0.70;99.90
44190;DHT22;29856;52.144;5.430;2022-12-18T05:37:47;0.70;99.90
44190;DHT22;29856;52.144;5.430;2022-12-18T05:40:13;1.10;99.90
44190;DHT22;29856;52.144;5.430;2022-12-18T05:42:39;1.00;99.90
44190;DHT22;29856;52.144;5.430;2022-12-18T05:45:05;1.10;99.90
44190;DHT22;29856;52.144;5.430;2022-12-18T05:47:30;0.70;99.90
44190;DHT22;29856;52.144;5.430;2022-12-18T05:49:56;0.10;99.90
44190;DHT22;29856;52.144;5.430;2022-12-18T05:52:21;-0.40;99.90
44190;DHT22;29856;52.144;5.430;2022-12-18T05:54:47;-0.80;99.90
44190;DHT22;29856;52.144;5.430;2022-12-18T05:57:12;-1.10;99.90
44190;DHT22;29856;52.144;5.430;2022-12-18T05:59:38;-1.30;99.90
44190;DHT22;29856;52.144;5.430;2022-12-18T06:02:03;-1.40;99.90
44190;DHT22;29856;52.144;5.430;2022-12-18T06:04:30;-1.60;99.90
44190;DHT22;29856;52.144;5.430;2022-12-18T06:06:56;-1.80;99.90
44190;DHT22;29856;52.144;5.430;2022-12-18T06:09:22;-1.90;99.90
44190;DHT22;29856;52.144;5.430;2022-12-18T06:11:47;-2.10;99.90
44190;DHT22;29856;52.144;5.430;2022-12-18T06:14:13;-2.20;99.90
44190;DHT22;29856;52.144;5.430;2022-12-18T06:16:38;-2.20;99.90
44190;DHT22;29856;52.144;5.430;2022-12-18T06:19:05;-2.20;99.90
44190;DHT22;29856;52.144;5.430;2022-12-18T06:21:31;-1.70;99.90
44190;DHT22;29856;52.144;5.430;2022-12-18T06:23:57;-0.70;99.90
44190;DHT22;29856;52.144;5.430;2022-12-18T06:26:22;-1.00;99.90
44190;DHT22;29856;52.144;5.430;2022-12-18T06:28:48;-1.40;99.90
44190;DHT22;29856;52.144;5.430;2022-12-18T06:31:13;-1.70;99.90
44190;DHT22;29856;52.144;5.430;2022-12-18T06:33:39;-1.90;99.90
44190;DHT22;29856;52.144;5.430;2022-12-18T06:36:10;-2.10;99.90
44190;DHT22;29856;52.144;5.430;2022-12-18T06:38:38;-2.20;99.90
44190;DHT22;29856;52.144;5.430;2022-12-18T06:41:15;-2.20;99.90
44190;DHT22;29856;52.144;5.430;2022-12-18T06:43:41;-1.30;99.90
44190;DHT22;29856;52.144;5.430;2022-12-18T06:46:07;-0.70;99.90
44190;DHT22;29856;52.144;5.430;2022-12-18T06:48:33;-0.30;99.90
44190;DHT22;29856;52.144;5.430;2022-12-18T06:50:59;-0.10;99.90
44190;DHT22;29856;52.144;5.430;2022-12-18T06:53:25;0.20;99.90
44190;DHT22;29856;52.144;5.430;2022-12-18T06:55:50;0.50;99.90
44190;DHT22;29856;52.144;5.430;2022-12-18T06:58:16;0.30;99.90
44190;DHT22;29856;52.144;5.430;2022-12-18T07:00:42;-0.20;99.90
44190;DHT22;29856;52.144;5.430;2022-12-18T07:03:07;-0.30;99.90
44190;DHT22;29856;52.144;5.430;2022-12-18T07:05:33;0.10;99.90
44190;DHT22;29856;52.144;5.430;2022-12-18T07:07:58;0.30;99.90
44190;DHT22;29856;52.144;5.430;2022-12-18T07:10:24;0.40;99.90
44190;DHT22;29856;52.144;5.430;2022-12-18T07:12:49;0.30;99.90
44190;DHT22;29856;52.144;5.430;2022-12-18T07:15:15;0.50;99.90
44190;DHT22;29856;52.144;5.430;2022-12-18T07:17:40;0.70;99.90
44190;DHT22;29856;52.144;5.430;2022-12-18T07:20:09;0.30;99.90
44190;DHT22;29856;52.144;5.430;2022-12-18T07:22:34;-0.10;99.90
44190;DHT22;29856;52.144;5.430;2022-12-18T07:25:00;0.00;99.90
44190;DHT22;29856;52.144;5.430;2022-12-18T07:27:25;-0.10;99.90
44190;DHT22;29856;52.144;5.430;2022-12-18T07:29:51;0.00;99.90
44190;DHT22;29856;52.144;5.430;2022-12-18T07:32:16;0.10;99.90
44190;DHT22;29856;52.144;5.430;2022-12-18T07:34:41;-0.10;99.90
44190;DHT22;29856;52.144;5.430;2022-12-18T07:37:07;0.30;99.90
44190;DHT22;29856;52.144;5.430;2022-12-18T07:39:32;0.40;99.90
44190;DHT22;29856;52.144;5.430;2022-12-18T07:41:58;0.20;99.90
44190;DHT22;29856;52.144;5.430;2022-12-18T07:44:23;0.20;99.90
44190;DHT22;29856;52.144;5.430;2022-12-18T07:46:49;0.30;99.90
44190;DHT22;29856;52.144;5.430;2022-12-18T07:49:14;0.20;99.90
44190;DHT22;29856;52.144;5.430;2022-12-18T07:51:40;0.30;99.90
44190;DHT22;29856;52.144;5.430;2022-12-18T07:54:05;0.20;99.90
44190;DHT22;29856;52.144;5.430;2022-12-18T07:56:31;0.50;99.90
44190;DHT22;29856;52.144;5.430;2022-12-18T07:58:56;0.40;99.90
44190;DHT22;29856;52.144;5.430;2022-12-18T08:01:22;0.50;99.90
44190;DHT22;29856;52.144;5.430;2022-12-18T08:03:47;0.80;99.90
44190;DHT22;29856;52.144;5.430;2022-12-18T08:06:13;0.90;99.90
44190;DHT22;29856;52.144;5.430;2022-12-18T08:08:38;0.80;99.90
44190;DHT22;29856;52.144;5.430;2022-12-18T08:11:04;0.90;99.90
44190;DHT22;29856;52.144;5.430;2022-12-18T08:13:29;1.00;99.90
44190;DHT22;29856;52.144;5.430;2022-12-18T08:16:00;0.90;99.90
44190;DHT22;29856;52.144;5.430;2022-12-18T08:18:26;0.50;99.90
44190;DHT22;29856;52.144;5.430;2022-12-18T08:20:52;0.20;99.90
44190;DHT22;29856;52.144;5.430;2022-12-18T08:23:17;0.30;99.90
44190;DHT22;29856;52.144;5.430;2022-12-18T08:25:43;0.40;99.90
44190;DHT22;29856;52.144;5.430;2022-12-18T08:28:08;0.30;99.90
44190;DHT22;29856;52.144;5.430;2022-12-18T08:30:34;0.60;99.90
44190;DHT22;29856;52.144;5.430;2022-12-18T08:33:00;0.60;99.90
44190;DHT22;29856;52.144;5.430;2022-12-18T08:35:25;0.50;99.90
44190;DHT22;29856;52.144;5.430;2022-12-18T08:37:51;0.40;99.90
44190;DHT22;29856;52.144;5.430;2022-12-18T08:40:16;0.60;99.90
44190;DHT22;29856;52.144;5.430;2022-12-18T08:42:42;0.40;99.90
44190;DHT22;29856;52.144;5.430;2022-12-18T08:45:08;0.40;99.90
44190;DHT22;29856;52.144;5.430;2022-12-18T08:47:33;0.40;99.90
44190;DHT22;29856;52.144;5.430;2022-12-18T08:49:59;0.50;99.90
44190;DHT22;29856;52.144;5.430;2022-12-18T08:52:24;0.40;99.90
44190;DHT22;29856;52.144;5.430;2022-12-18T08:54:49;0.20;99.90
44190;DHT22;29856;52.144;5.430;2022-12-18T08:57:15;0.40;99.90
44190;DHT22;29856;52.144;5.430;2022-12-18T08:59:40;0.50;99.90
44190;DHT22;29856;52.144;5.430;2022-12-18T09:02:07;0.10;99.90
44190;DHT22;29856;52.144;5.430;2022-12-18T09:04:33;-0.10;99.90
44190;DHT22;29856;52.144;5.430;2022-12-18T09:06:58;0.10;99.90
44190;DHT22;29856;52.144;5.430;2022-12-18T09:09:24;0.30;99.90
44190;DHT22;29856;52.144;5.430;2022-12-18T09:11:49;0.60;99.90
44190;DHT22;29856;52.144;5.430;2022-12-18T09:14:15;0.50;99.90
44190;DHT22;29856;52.144;5.430;2022-12-18T09:16:40;0.30;99.90
44190;DHT22;29856;52.144;5.430;2022-12-18T09:19:06;0.20;99.90
44190;DHT22;29856;52.144;5.430;2022-12-18T09:21:33;0.40;99.90
44190;DHT22;29856;52.144;5.430;2022-12-18T09:23:59;0.70;99.90
44190;DHT22;29856;52.144;5.430;2022-12-18T09:26:26;0.80;99.90
44190;DHT22;29856;52.144;5.430;2022-12-18T09:28:52;0.50;99.90
44190;DHT22;29856;52.144;5.430;2022-12-18T09:31:20;0.60;99.90
44190;DHT22;29856;52.144;5.430;2022-12-18T09:33:45;0.80;99.90
44190;DHT22;29856;52.144;5.430;2022-12-18T09:36:13;0.90;99.90
44190;DHT22;29856;52.144;5.430;2022-12-18T09:38:39;0.70;99.90
44190;DHT22;29856;52.144;5.430;2022-12-18T09:43:51;0.50;99.90
44190;DHT22;29856;52.144;5.430;2022-12-18T09:46:43;0.50;99.90
44190;DHT22;29856;52.144;5.430;2022-12-18T09:49:13;0.50;99.90
44190;DHT22;29856;52.144;5.430;2022-12-18T09:51:47;0.30;99.90
44190;DHT22;29856;52.144;5.430;2022-12-18T09:54:20;0.30;99.90
44190;DHT22;29856;52.144;5.430;2022-12-18T09:56:46;0.20;99.90
44190;DHT22;29856;52.144;5.430;2022-12-18T09:59:36;0.40;99.90
44190;DHT22;29856;52.144;5.430;2022-12-18T10:02:24;0.40;99.90
44190;DHT22;29856;52.144;5.430;2022-12-18T10:05:12;0.40;99.90
44190;DHT22;29856;52.144;5.430;2022-12-18T10:07:49;0.50;99.90
44190;DHT22;29856;52.144;5.430;2022-12-18T10:10:35;0.60;99.90
44190;DHT22;29856;52.144;5.430;2022-12-18T10:15:45;0.50;99.90
44190;DHT22;29856;52.144;5.430;2022-12-18T10:18:21;0.60;99.90
44190;DHT22;29856;52.144;5.430;2022-12-18T10:20:51;0.60;99.90
44190;DHT22;29856;52.144;5.430;2022-12-18T10:23:27;0.50;99.90
44190;DHT22;29856;52.144;5.430;2022-12-18T10:26:08;0.50;99.90
44190;DHT22;29856;52.144;5.430;2022-12-18T10:28:36;0.70;99.90
44190;DHT22;29856;52.144;5.430;2022-12-18T10:31:05;0.70;99.90
44190;DHT22;29856;52.144;5.430;2022-12-18T10:33:32;0.80;99.90
44190;DHT22;29856;52.144;5.430;2022-12-18T10:35:58;0.90;99.90
44190;DHT22;29856;52.144;5.430;2022-12-18T10:38:27;1.10;99.90
44190;DHT22;29856;52.144;5.430;2022-12-18T10:40:58;1.00;99.90
44190;DHT22;29856;52.144;5.430;2022-12-18T10:43:31;1.10;99.90
44190;DHT22;29856;52.144;5.430;2022-12-18T10:51:31;1.40;99.90
44190;DHT22;29856;52.144;5.430;2022-12-18T10:54:06;1.50;99.90
44190;DHT22;29856;52.144;5.430;2022-12-18T10:56:35;1.50;99.90
44190;DHT22;29856;52.144;5.430;2022-12-18T10:59:03;1.50;99.90
44190;DHT22;29856;52.144;5.430;2022-12-18T11:04:26;1.60;99.90
44190;DHT22;29856;52.144;5.430;2022-12-18T11:07:12;1.60;99.90
44190;DHT22;29856;52.144;5.430;2022-12-18T11:09:39;1.70;99.90
44190;DHT22;29856;52.144;5.430;2022-12-18T11:12:20;1.60;99.90
44190;DHT22;29856;52.144;5.430;2022-12-18T11:14:50;1.80;99.90
44190;DHT22;29856;52.144;5.430;2022-12-18T11:17:42;1.40;99.90
44190;DHT22;29856;52.144;5.430;2022-12-18T11:22:55;1.50;99.90
44190;DHT22;29856;52.144;5.430;2022-12-18T11:25:21;1.50;99.90
44190;DHT22;29856;52.144;5.430;2022-12-18T11:27:56;1.60;99.90
44190;DHT22;29856;52.144;5.430;2022-12-18T11:38:18;1.90;99.90
44190;DHT22;29856;52.144;5.430;2022-12-18T11:40:50;2.00;99.90
44190;DHT22;29856;52.144;5.430;2022-12-18T11:43:40;1.90;99.90
44190;DHT22;29856;52.144;5.430;2022-12-18T11:46:13;1.90;99.90
44190;DHT22;29856;52.144;5.430;2022-12-18T11:51:15;2.00;99.90
44190;DHT22;29856;52.144;5.430;2022-12-18T11:53:44;2.20;99.90
44190;DHT22;29856;52.144;5.430;2022-12-18T11:56:35;2.10;99.90
44190;DHT22;29856;52.144;5.430;2022-12-18T11:59:16;2.10;99.90
44190;DHT22;29856;52.144;5.430;2022-12-18T12:01:52;2.10;99.90
44190;DHT22;29856;52.144;5.430;2022-12-18T12:12:43;2.30;99.90
44190;DHT22;29856;52.144;5.430;2022-12-18T12:21:46;2.10;99.90
44190;DHT22;29856;52.144;5.430;2022-12-18T12:24:20;2.20;99.90
44190;DHT22;29856;52.144;5.430;2022-12-18T12:32:34;2.20;99.90
44190;DHT22;29856;52.144;5.430;2022-12-18T12:40:26;2.30;99.90
44190;DHT22;29856;52.144;5.430;2022-12-18T12:42:59;2.40;99.90
44190;DHT22;29856;52.144;5.430;2022-12-18T12:45:37;2.40;99.90
44190;DHT22;29856;52.144;5.430;2022-12-18T12:48:07;2.50;99.90
44190;DHT22;29856;52.144;5.430;2022-12-18T12:50:39;2.50;99.90
44190;DHT22;29856;52.144;5.430;2022-12-18T12:53:09;2.50;99.90
44190;DHT22;29856;52.144;5.430;2022-12-18T12:55:39;2.60;99.90
44190;DHT22;29856;52.144;5.430;2022-12-18T13:01:17;2.60;99.90
44190;DHT22;29856;52.144;5.430;2022-12-18T13:03:59;2.70;99.90
44190;DHT22;29856;52.144;5.430;2022-12-18T13:08:59;2.60;99.90
44190;DHT22;29856;52.144;5.430;2022-12-18T13:11:45;2.90;99.90
44190;DHT22;29856;52.144;5.430;2022-12-18T13:14:21;2.80;99.90
44190;DHT22;29856;52.144;5.430;2022-12-18T13:16:47;2.90;99.90
44190;DHT22;29856;52.144;5.430;2022-12-18T13:19:22;2.80;99.90
44190;DHT22;29856;52.144;5.430;2022-12-18T13:21:54;2.70;99.90
44190;DHT22;29856;52.144;5.430;2022-12-18T13:24:27;2.90;99.90
44190;DHT22;29856;52.144;5.430;2022-12-18T13:26:53;3.10;99.90
44190;DHT22;29856;52.144;5.430;2022-12-18T13:29:41;3.10;99.90
44190;DHT22;29856;52.144;5.430;2022-12-18T13:32:22;3.10;99.90
44190;DHT22;29856;52.144;5.430;2022-12-18T13:34:48;3.00;99.90
44190;DHT22;29856;52.144;5.430;2022-12-18T13:39:57;2.90;99.90
44190;DHT22;29856;52.144;5.430;2022-12-18T13:44:54;3.10;99.90
44190;DHT22;29856;52.144;5.430;2022-12-18T13:47:31;3.10;99.90
44190;DHT22;29856;52.144;5.430;2022-12-18T13:49:57;3.20;99.90
44190;DHT22;29856;52.144;5.430;2022-12-18T13:52:28;3.10;99.90
44190;DHT22;29856;52.144;5.430;2022-12-18T13:55:02;3.20;99.90
44190;DHT22;29856;52.144;5.430;2022-12-18T13:57:31;3.20;99.90
44190;DHT22;29856;52.144;5.430;2022-12-18T13:59:58;3.20;99.90
44190;DHT22;29856;52.144;5.430;2022-12-18T14:02:28;2.90;99.90
44190;DHT22;29856;52.144;5.430;2022-12-18T14:04:54;2.90;99.90
44190;DHT22;29856;52.144;5.430;2022-12-18T14:07:24;2.80;99.90
44190;DHT22;29856;52.144;5.430;2022-12-18T14:09:52;2.90;99.90
44190;DHT22;29856;52.144;5.430;2022-12-18T14:12:24;2.90;99.90
44190;DHT22;29856;52.144;5.430;2022-12-18T14:14:52;3.00;99.90
44190;DHT22;29856;52.144;5.430;2022-12-18T14:17:18;3.00;99.90
44190;DHT22;29856;52.144;5.430;2022-12-18T14:19:49;3.10;99.90
44190;DHT22;29856;52.144;5.430;2022-12-18T14:22:24;2.90;99.90
44190;DHT22;29856;52.144;5.430;2022-12-18T14:25:13;2.90;99.90
44190;DHT22;29856;52.144;5.430;2022-12-18T14:27:47;3.00;99.90
44190;DHT22;29856;52.144;5.430;2022-12-18T14:30:37;3.20;99.90
44190;DHT22;29856;52.144;5.430;2022-12-18T14:33:16;3.30;99.90
44190;DHT22;29856;52.144;5.430;2022-12-18T14:35:56;3.20;99.90
44190;DHT22;29856;52.144;5.430;2022-12-18T14:38:26;3.40;99.90
44190;DHT22;29856;52.144;5.430;2022-12-18T14:40:58;3.20;99.90
44190;DHT22;29856;52.144;5.430;2022-12-18T14:43:23;3.20;99.90
44190;DHT22;29856;52.144;5.430;2022-12-18T14:45:49;3.20;99.90
44190;DHT22;29856;52.144;5.430;2022-12-18T14:48:24;3.00;99.90
44190;DHT22;29856;52.144;5.430;2022-12-18T14:50:59;3.20;99.90
44190;DHT22;29856;52.144;5.430;2022-12-18T14:53:56;2.90;99.90
44190;DHT22;29856;52.144;5.430;2022-12-18T14:56:26;2.80;99.90
44190;DHT22;29856;52.144;5.430;2022-12-18T14:58:57;2.90;99.90
44190;DHT22;29856;52.144;5.430;2022-12-18T15:01:35;3.00;99.90
44190;DHT22;29856;52.144;5.430;2022-12-18T15:04:02;3.00;99.90
44190;DHT22;29856;52.144;5.430;2022-12-18T15:06:36;2.80;99.90
44190;DHT22;29856;52.144;5.430;2022-12-18T15:09:18;2.80;99.90
44190;DHT22;29856;52.144;5.430;2022-12-18T15:11:46;2.70;99.90
44190;DHT22;29856;52.144;5.430;2022-12-18T15:14:39;2.70;99.90
44190;DHT22;29856;52.144;5.430;2022-12-18T15:17:16;2.70;99.90
44190;DHT22;29856;52.144;5.430;2022-12-18T15:19:43;2.70;99.90
44190;DHT22;29856;52.144;5.430;2022-12-18T15:22:25;2.70;99.90
44190;DHT22;29856;52.144;5.430;2022-12-18T15:24:51;2.80;99.90
44190;DHT22;29856;52.144;5.430;2022-12-18T15:32:32;2.70;99.90
44190;DHT22;29856;52.144;5.430;2022-12-18T15:35:36;2.70;99.90
44190;DHT22;29856;52.144;5.430;2022-12-18T15:38:02;2.70;99.90
44190;DHT22;29856;52.144;5.430;2022-12-18T15:40:27;2.70;99.90
44190;DHT22;29856;52.144;5.430;2022-12-18T15:42:54;2.70;99.90
44190;DHT22;29856;52.144;5.430;2022-12-18T15:45:20;2.60;99.90
44190;DHT22;29856;52.144;5.430;2022-12-18T15:47:45;2.60;99.90
44190;DHT22;29856;52.144;5.430;2022-12-18T15:50:11;2.50;99.90
44190;DHT22;29856;52.144;5.430;2022-12-18T15:52:43;2.50;99.90
44190;DHT22;29856;52.144;5.430;2022-12-18T15:55:14;2.50;99.90
44190;DHT22;29856;52.144;5.430;2022-12-18T15:57:39;2.40;99.90
44190;DHT22;29856;52.144;5.430;2022-12-18T16:00:05;2.50;99.90
44190;DHT22;29856;52.144;5.430;2022-12-18T16:02:31;2.60;99.90
44190;DHT22;29856;52.144;5.430;2022-12-18T16:04:56;2.50;99.90
44190;DHT22;29856;52.144;5.430;2022-12-18T16:07:22;2.70;99.90
44190;DHT22;29856;52.144;5.430;2022-12-18T16:09:47;2.70;99.90
44190;DHT22;29856;52.144;5.430;2022-12-18T16:12:17;2.60;99.90
44190;DHT22;29856;52.144;5.430;2022-12-18T16:14:43;2.50;99.90
44190;DHT22;29856;52.144;5.430;2022-12-18T16:17:10;2.50;99.90
44190;DHT22;29856;52.144;5.430;2022-12-18T16:19:36;2.50;99.90
44190;DHT22;29856;52.144;5.430;2022-12-18T16:22:04;2.40;99.90
44190;DHT22;29856;52.144;5.430;2022-12-18T16:24:32;2.40;99.90
44190;DHT22;29856;52.144;5.430;2022-12-18T16:27:00;2.40;99.90
44190;DHT22;29856;52.144;5.430;2022-12-18T16:29:27;2.50;99.90
44190;DHT22;29856;52.144;5.430;2022-12-18T16:31:57;2.30;99.90
44190;DHT22;29856;52.144;5.430;2022-12-18T16:34:27;2.20;99.90
44190;DHT22;29856;52.144;5.430;2022-12-18T16:37:00;2.30;99.90
44190;DHT22;29856;52.144;5.430;2022-12-18T16:39:27;2.30;99.90
44190;DHT22;29856;52.144;5.430;2022-12-18T16:41:52;2.30;99.90
44190;DHT22;29856;52.144;5.430;2022-12-18T16:44:18;2.30;99.90
44190;DHT22;29856;52.144;5.430;2022-12-18T16:46:44;2.30;99.90
44190;DHT22;29856;52.144;5.430;2022-12-18T16:49:09;2.20;99.90
44190;DHT22;29856;52.144;5.430;2022-12-18T16:51:35;2.40;99.90
44190;DHT22;29856;52.144;5.430;2022-12-18T16:54:01;2.30;99.90
44190;DHT22;29856;52.144;5.430;2022-12-18T16:56:26;2.30;99.90
44190;DHT22;29856;52.144;5.430;2022-12-18T16:58:56;2.30;99.90
44190;DHT22;29856;52.144;5.430;2022-12-18T17:01:23;2.30;99.90
44190;DHT22;29856;52.144;5.430;2022-12-18T17:03:57;2.40;99.90
44190;DHT22;29856;52.144;5.430;2022-12-18T17:06:24;2.40;99.90
44190;DHT22;29856;52.144;5.430;2022-12-18T17:09:00;2.30;99.90
44190;DHT22;29856;52.144;5.430;2022-12-18T17:11:27;2.30;99.90
44190;DHT22;29856;52.144;5.430;2022-12-18T17:13:53;2.40;99.90
44190;DHT22;29856;52.144;5.430;2022-12-18T17:16:19;2.40;99.90
44190;DHT22;29856;52.144;5.430;2022-12-18T17:18:44;2.50;99.90
44190;DHT22;29856;52.144;5.430;2022-12-18T17:21:11;2.30;99.90
44190;DHT22;29856;52.144;5.430;2022-12-18T17:23:37;2.30;99.90
44190;DHT22;29856;52.144;5.430;2022-12-18T17:26:03;2.30;99.90